sensor_id;sensor_type;location;lat;lon;timestamp;temperature;humidity
74155;DHT22;62509;46.248;6.018;2024-01-06T00:02:50;7.90;99.90
74155;DHT22;62509;46.248;6.018;2024-01-06T00:07:54;7.80;99.90
74155;DHT22;62509;46.248;6.018;2024-01-06T00:12:57;7.80;99.90
74155;DHT22;62509;46.248;6.018;2024-01-06T00:18:02;7.90;99.90
74155;DHT22;62509;46.248;6.018;2024-01-06T00:23:05;7.80;99.90
74155;DHT22;62509;46.248;6.018;2024-01-06T00:28:09;7.70;99.90
74155;DHT22;62509;46.248;6.018;2024-01-06T00:33:14;7.70;99.90
74155;DHT22;62509;46.248;6.018;2024-01-06T00:38:17;7.70;99.90
74155;DHT22;62509;46.248;6.018;2024-01-06T00:43:22;7.70;99.90
74155;DHT22;62509;46.248;6.018;2024-01-06T00:48:27;7.70;99.90
74155;DHT22;62509;46.248;6.018;2024-01-06T00:53:30;7.80;99.90
74155;DHT22;62509;46.248;6.018;2024-01-06T00:58:33;7.80;99.90
74155;DHT22;62509;46.248;6.018;2024-01-06T01:03:38;7.70;99.90
74155;DHT22;62509;46.248;6.018;2024-01-06T01:08:42;7.70;99.90
74155;DHT22;62509;46.248;6.018;2024-01-06T01:13:45;7.70;99.90
74155;DHT22;62509;46.248;6.018;2024-01-06T01:18:50;7.70;99.90
74155;DHT22;62509;46.248;6.018;2024-01-06T01:23:54;7.80;99.90
74155;DHT22;62509;46.248;6.018;2024-01-06T01:28:57;7.80;99.90
74155;DHT22;62509;46.248;6.018;2024-01-06T01:34:02;7.80;99.90
74155;DHT22;62509;46.248;6.018;2024-01-06T01:39:06;7.80;99.90
74155;DHT22;62509;46.248;6.018;2024-01-06T01:44:09;7.70;99.90
74155;DHT22;62509;46.248;6.018;2024-01-06T01:49:14;7.70;99.90
74155;DHT22;62509;46.248;6.018;2024-01-06T01:54:18;7.70;99.90
74155;DHT22;62509;46.248;6.018;2024-01-06T01:59:21;7.70;99.90
74155;DHT22;62509;46.248;6.018;2024-01-06T02:04:26;7.70;99.90
74155;DHT22;62509;46.248;6.018;2024-01-06T02:09:30;7.80;99.90
74155;DHT22;62509;46.248;6.018;2024-01-06T02:14:33;7.70;99.90
74155;DHT22;62509;46.248;6.018;2024-01-06T02:19:38;7.70;99.90
74155;DHT22;62509;46.248;6.018;2024-01-06T02:24:43;7.70;99.90
74155;DHT22;62509;46.248;6.018;2024-01-06T02:29:46;7.70;99.90
74155;DHT22;62509;46.248;6.018;2024-01-06T02:34:50;7.80;99.90
74155;DHT22;62509;46.248;6.018;2024-01-06T02:39:55;7.70;99.90
74155;DHT22;62509;46.248;6.018;2024-01-06T02:44:58;7.60;99.90
74155;DHT22;62509;46.248;6.018;2024-01-06T02:50:01;7.50;99.90
74155;DHT22;62509;46.248;6.018;2024-01-06T02:55:07;7.40;99.90
74155;DHT22;62509;46.248;6.018;2024-01-06T03:00:11;7.30;99.90
74155;DHT22;62509;46.248;6.018;2024-01-06T03:05:14;7.20;99.90
74155;DHT22;62509;46.248;6.018;2024-01-06T03:10:20;7.20;99.90
74155;DHT22;62509;46.248;6.018;2024-01-06T03:15:23;7.20;99.90
74155;DHT22;62509;46.248;6.018;2024-01-06T03:20:27;7.20;99.90
74155;DHT22;62509;46.248;6.018;2024-01-06T03:25:32;7.10;99.90
74155;DHT22;62509;46.248;6.018;2024-01-06T03:30:35;7.10;99.90
74155;DHT22;62509;46.248;6.018;2024-01-06T03:35:39;7.10;99.90
74155;DHT22;62509;46.248;6.018;2024-01-06T03:40:45;7.20;99.90
74155;DHT22;62509;46.248;6.018;2024-01-06T03:45:48;7.20;99.90
74155;DHT22;62509;46.248;6.018;2024-01-06T03:50:52;7.30;99.90
74155;DHT22;62509;46.248;6.018;2024-01-06T03:55:57;7.40;99.90
74155;DHT22;62509;46.248;6.018;2024-01-06T04:01:01;7.40;99.90
74155;DHT22;62509;46.248;6.018;2024-01-06T04:06:05;7.30;99.90
74155;DHT22;62509;46.248;6.018;2024-01-06T04:11:10;7.20;99.90
74155;DHT22;62509;46.248;6.018;2024-01-06T04:16:13;7.20;99.90
74155;DHT22;62509;46.248;6.018;2024-01-06T04:21:17;7.30;99.90
74155;DHT22;62509;46.248;6.018;2024-01-06T04:26:21;7.20;99.90
74155;DHT22;62509;46.248;6.018;2024-01-06T04:31:25;7.20;99.90
74155;DHT22;62509;46.248;6.018;2024-01-06T04:36:29;7.30;99.90
74155;DHT22;62509;46.248;6.018;2024-01-06T04:41:34;7.20;99.90
74155;DHT22;62509;46.248;6.018;2024-01-06T04:46:37;7.00;99.90
74155;DHT22;62509;46.248;6.018;2024-01-06T04:51:40;6.90;99.90
74155;DHT22;62509;46.248;6.018;2024-01-06T04:56:45;6.90;99.90
74155;DHT22;62509;46.248;6.018;2024-01-06T05:01:49;6.90;99.90
74155;DHT22;62509;46.248;6.018;2024-01-06T05:06:53;6.90;99.90
74155;DHT22;62509;46.248;6.018;2024-01-06T05:11:58;7.00;99.90
74155;DHT22;62509;46.248;6.018;2024-01-06T05:17:02;6.90;99.90
74155;DHT22;62509;46.248;6.018;2024-01-06T05:22:06;6.90;99.90
74155;DHT22;62509;46.248;6.018;2024-01-06T05:27:11;6.90;99.90
74155;DHT22;62509;46.248;6.018;2024-01-06T05:32:15;6.80;99.90
74155;DHT22;62509;46.248;6.018;2024-01-06T05:37:19;6.80;99.90
74155;DHT22;62509;46.248;6.018;2024-01-06T05:42:24;6.80;99.90
74155;DHT22;62509;46.248;6.018;2024-01-06T05:47:28;6.80;99.90
74155;DHT22;62509;46.248;6.018;2024-01-06T05:52:31;6.80;99.90
74155;DHT22;62509;46.248;6.018;2024-01-06T05:57:37;6.80;99.90
74155;DHT22;62509;46.248;6.018;2024-01-06T06:02:40;6.80;99.90
74155;DHT22;62509;46.248;6.018;2024-01-06T06:07:43;6.70;99.90
74155;DHT22;62509;46.248;6.018;2024-01-06T06:12:49;6.70;99.90
74155;DHT22;62509;46.248;6.018;2024-01-06T06:17:52;6.60;99.90
74155;DHT22;62509;46.248;6.018;2024-01-06T06:22:56;6.60;99.90
74155;DHT22;62509;46.248;6.018;2024-01-06T06:28:00;6.60;99.90
74155;DHT22;62509;46.248;6.018;2024-01-06T06:33:05;6.60;99.90
74155;DHT22;62509;46.248;6.018;2024-01-06T06:38:08;6.50;99.90
74155;DHT22;62509;46.248;6.018;2024-01-06T06:43:13;6.40;99.90
74155;DHT22;62509;46.248;6.018;2024-01-06T06:48:20;6.40;99.90
74155;DHT22;62509;46.248;6.018;2024-01-06T06:53:24;6.40;99.90
74155;DHT22;62509;46.248;6.018;2024-01-06T06:58:29;6.50;99.90
74155;DHT22;62509;46.248;6.018;2024-01-06T07:03:32;6.40;99.90
74155;DHT22;62509;46.248;6.018;2024-01-06T07:08:36;6.40;99.90
74155;DHT22;62509;46.248;6.018;2024-01-06T07:13:41;6.30;99.90
74155;DHT22;62509;46.248;6.018;2024-01-06T07:18:44;6.30;99.90
74155;DHT22;62509;46.248;6.018;2024-01-06T07:23:49;6.30;99.90
74155;DHT22;62509;46.248;6.018;2024-01-06T07:28:53;6.30;99.90
74155;DHT22;62509;46.248;6.018;2024-01-06T07:33:57;6.30;99.90
74155;DHT22;62509;46.248;6.018;2024-01-06T07:39:01;6.30;99.90
74155;DHT22;62509;46.248;6.018;2024-01-06T07:44:06;6.20;99.90
74155;DHT22;62509;46.248;6.018;2024-01-06T07:49:10;6.00;99.90
74155;DHT22;62509;46.248;6.018;2024-01-06T07:54:14;6.10;99.90
74155;DHT22;62509;46.248;6.018;2024-01-06T07:59:19;6.10;99.90
74155;DHT22;62509;46.248;6.018;2024-01-06T08:04:22;6.10;99.90
74155;DHT22;62509;46.248;6.018;2024-01-06T08:09:25;6.10;99.90
74155;DHT22;62509;46.248;6.018;2024-01-06T08:14:30;6.10;99.90
74155;DHT22;62509;46.248;6.018;2024-01-06T08:19:33;6.10;99.90
74155;DHT22;62509;46.248;6.018;2024-01-06T08:24:37;6.10;99.90
74155;DHT22;62509;46.248;6.018;2024-01-06T08:29:42;6.10;99.90
74155;DHT22;62509;46.248;6.018;2024-01-06T08:34:46;6.10;99.90
74155;DHT22;62509;46.248;6.018;2024-01-06T08:39:49;6.20;99.90
74155;DHT22;62509;46.248;6.018;2024-01-06T08:44:54;6.10;99.90
74155;DHT22;62509;46.248;6.018;2024-01-06T08:49:57;6.00;99.90
74155;DHT22;62509;46.248;6.018;2024-01-06T08:55:01;6.10;99.90
74155;DHT22;62509;46.248;6.018;2024-01-06T09:00:07;6.10;99.90
74155;DHT22;62509;46.248;6.018;2024-01-06T09:05:12;6.10;99.90
74155;DHT22;62509;46.248;6.018;2024-01-06T09:10:16;6.20;99.90
74155;DHT22;62509;46.248;6.018;2024-01-06T09:15:21;6.30;99.90
74155;DHT22;62509;46.248;6.018;2024-01-06T09:20:24;6.50;99.90
74155;DHT22;62509;46.248;6.018;2024-01-06T09:25:29;6.70;99.90
74155;DHT22;62509;46.248;6.018;2024-01-06T09:30:34;6.80;99.90
74155;DHT22;62509;46.248;6.018;2024-01-06T09:35:39;6.90;99.90
74155;DHT22;62509;46.248;6.018;2024-01-06T09:40:42;7.00;99.90
74155;DHT22;62509;46.248;6.018;2024-01-06T09:45:55;7.00;99.90
74155;DHT22;62509;46.248;6.018;2024-01-06T09:51:01;7.10;99.90
74155;DHT22;62509;46.248;6.018;2024-01-06T09:56:06;7.10;99.90
74155;DHT22;62509;46.248;6.018;2024-01-06T10:01:11;7.10;99.90
74155;DHT22;62509;46.248;6.018;2024-01-06T10:06:17;7.10;99.90
74155;DHT22;62509;46.248;6.018;2024-01-06T10:11:22;7.20;99.90
74155;DHT22;62509;46.248;6.018;2024-01-06T10:16:27;7.10;99.90
74155;DHT22;62509;46.248;6.018;2024-01-06T10:21:32;7.00;99.90
74155;DHT22;62509;46.248;6.018;2024-01-06T10:26:36;7.10;99.90
74155;DHT22;62509;46.248;6.018;2024-01-06T10:31:42;7.10;99.90
74155;DHT22;62509;46.248;6.018;2024-01-06T10:36:45;7.20;99.90
74155;DHT22;62509;46.248;6.018;2024-01-06T10:41:49;7.40;99.90
74155;DHT22;62509;46.248;6.018;2024-01-06T10:46:54;7.50;99.90
74155;DHT22;62509;46.248;6.018;2024-01-06T10:52:01;7.60;99.90
74155;DHT22;62509;46.248;6.018;2024-01-06T10:57:06;7.50;99.90
74155;DHT22;62509;46.248;6.018;2024-01-06T11:02:11;7.50;99.90
74155;DHT22;62509;46.248;6.018;2024-01-06T11:07:18;7.50;99.90
74155;DHT22;62509;46.248;6.018;2024-01-06T11:12:23;7.60;99.90
74155;DHT22;62509;46.248;6.018;2024-01-06T11:22:57;7.80;97.90
74155;DHT22;62509;46.248;6.018;2024-01-06T11:28:23;7.80;91.70
74155;DHT22;62509;46.248;6.018;2024-01-06T11:33:29;7.90;88.90
74155;DHT22;62509;46.248;6.018;2024-01-06T11:38:33;8.10;85.50
74155;DHT22;62509;46.248;6.018;2024-01-06T11:43:39;8.10;81.30
74155;DHT22;62509;46.248;6.018;2024-01-06T11:48:44;8.10;81.80
74155;DHT22;62509;46.248;6.018;2024-01-06T11:53:53;8.10;84.40
74155;DHT22;62509;46.248;6.018;2024-01-06T11:58:56;8.30;86.20
74155;DHT22;62509;46.248;6.018;2024-01-06T12:04:01;8.40;86.50
74155;DHT22;62509;46.248;6.018;2024-01-06T12:09:07;8.50;84.40
74155;DHT22;62509;46.248;6.018;2024-01-06T12:14:11;8.60;82.10
74155;DHT22;62509;46.248;6.018;2024-01-06T12:19:15;8.50;80.80
74155;DHT22;62509;46.248;6.018;2024-01-06T12:24:19;8.40;79.20
74155;DHT22;62509;46.248;6.018;2024-01-06T12:29:25;8.40;79.50
74155;DHT22;62509;46.248;6.018;2024-01-06T12:34:31;8.60;78.70
74155;DHT22;62509;46.248;6.018;2024-01-06T12:39:35;8.70;74.60
74155;DHT22;62509;46.248;6.018;2024-01-06T12:44:38;8.70;70.60
74155;DHT22;62509;46.248;6.018;2024-01-06T12:49:44;8.60;67.30
74155;DHT22;62509;46.248;6.018;2024-01-06T12:54:48;8.60;65.50
74155;DHT22;62509;46.248;6.018;2024-01-06T12:59:51;8.50;64.40
74155;DHT22;62509;46.248;6.018;2024-01-06T13:04:57;8.60;64.70
74155;DHT22;62509;46.248;6.018;2024-01-06T13:10:01;8.50;64.60
74155;DHT22;62509;46.248;6.018;2024-01-06T13:15:05;8.40;64.60
74155;DHT22;62509;46.248;6.018;2024-01-06T13:20:14;8.40;64.90
74155;DHT22;62509;46.248;6.018;2024-01-06T13:25:19;8.40;64.60
74155;DHT22;62509;46.248;6.018;2024-01-06T13:30:23;8.40;64.70
74155;DHT22;62509;46.248;6.018;2024-01-06T13:35:29;8.30;64.60
74155;DHT22;62509;46.248;6.018;2024-01-06T13:40:33;8.30;65.10
74155;DHT22;62509;46.248;6.018;2024-01-06T13:45:36;8.10;63.40
74155;DHT22;62509;46.248;6.018;2024-01-06T13:50:41;8.20;64.40
74155;DHT22;62509;46.248;6.018;2024-01-06T13:55:45;8.10;65.10
74155;DHT22;62509;46.248;6.018;2024-01-06T14:00:48;8.20;65.60
74155;DHT22;62509;46.248;6.018;2024-01-06T14:05:53;8.10;65.50
74155;DHT22;62509;46.248;6.018;2024-01-06T14:10:57;8.00;65.30
74155;DHT22;62509;46.248;6.018;2024-01-06T14:16:00;8.00;65.00
74155;DHT22;62509;46.248;6.018;2024-01-06T14:21:06;8.00;64.40
74155;DHT22;62509;46.248;6.018;2024-01-06T14:26:09;8.00;63.90
74155;DHT22;62509;46.248;6.018;2024-01-06T14:31:13;7.90;63.60
74155;DHT22;62509;46.248;6.018;2024-01-06T14:36:18;7.70;62.80
74155;DHT22;62509;46.248;6.018;2024-01-06T14:41:22;7.70;63.00
74155;DHT22;62509;46.248;6.018;2024-01-06T14:46:25;7.80;62.70
74155;DHT22;62509;46.248;6.018;2024-01-06T14:51:30;7.70;62.20
74155;DHT22;62509;46.248;6.018;2024-01-06T14:56:37;7.70;62.30
74155;DHT22;62509;46.248;6.018;2024-01-06T15:01:42;7.70;61.70
74155;DHT22;62509;46.248;6.018;2024-01-06T15:06:47;7.70;61.80
74155;DHT22;62509;46.248;6.018;2024-01-06T15:11:51;7.60;61.70
74155;DHT22;62509;46.248;6.018;2024-01-06T15:16:54;7.60;61.90
74155;DHT22;62509;46.248;6.018;2024-01-06T15:21:59;7.50;62.20
74155;DHT22;62509;46.248;6.018;2024-01-06T15:27:03;7.40;62.70
74155;DHT22;62509;46.248;6.018;2024-01-06T15:32:07;7.30;61.90
74155;DHT22;62509;46.248;6.018;2024-01-06T15:37:11;7.20;61.10
74155;DHT22;62509;46.248;6.018;2024-01-06T15:42:15;7.10;61.20
74155;DHT22;62509;46.248;6.018;2024-01-06T15:47:18;7.00;60.80
74155;DHT22;62509;46.248;6.018;2024-01-06T15:52:23;7.00;61.00
74155;DHT22;62509;46.248;6.018;2024-01-06T15:57:27;6.90;61.20
74155;DHT22;62509;46.248;6.018;2024-01-06T16:02:32;6.90;61.20
74155;DHT22;62509;46.248;6.018;2024-01-06T16:07:37;6.90;61.20
74155;DHT22;62509;46.248;6.018;2024-01-06T16:12:40;7.00;61.20
74155;DHT22;62509;46.248;6.018;2024-01-06T16:17:44;6.80;61.10
74155;DHT22;62509;46.248;6.018;2024-01-06T16:22:49;6.70;62.20
74155;DHT22;62509;46.248;6.018;2024-01-06T16:27:52;6.60;62.40
74155;DHT22;62509;46.248;6.018;2024-01-06T16:32:56;6.60;62.80
74155;DHT22;62509;46.248;6.018;2024-01-06T16:38:03;6.60;63.40
74155;DHT22;62509;46.248;6.018;2024-01-06T16:43:07;6.70;63.40
74155;DHT22;62509;46.248;6.018;2024-01-06T16:48:10;6.80;63.60
74155;DHT22;62509;46.248;6.018;2024-01-06T16:53:15;6.90;63.70
74155;DHT22;62509;46.248;6.018;2024-01-06T16:58:18;6.90;63.70
74155;DHT22;62509;46.248;6.018;2024-01-06T17:03:22;7.00;64.10
74155;DHT22;62509;46.248;6.018;2024-01-06T17:08:27;6.90;64.30
74155;DHT22;62509;46.248;6.018;2024-01-06T17:13:30;6.90;64.90
74155;DHT22;62509;46.248;6.018;2024-01-06T17:18:34;6.80;65.70
74155;DHT22;62509;46.248;6.018;2024-01-06T17:23:39;6.70;65.80
74155;DHT22;62509;46.248;6.018;2024-01-06T17:28:43;6.70;65.00
74155;DHT22;62509;46.248;6.018;2024-01-06T17:33:46;6.70;64.70
74155;DHT22;62509;46.248;6.018;2024-01-06T17:38:54;6.70;64.70
74155;DHT22;62509;46.248;6.018;2024-01-06T17:43:57;6.70;64.60
74155;DHT22;62509;46.248;6.018;2024-01-06T17:49:01;6.70;64.80
74155;DHT22;62509;46.248;6.018;2024-01-06T17:54:08;6.70;65.20
74155;DHT22;62509;46.248;6.018;2024-01-06T17:59:12;6.70;66.10
74155;DHT22;62509;46.248;6.018;2024-01-06T18:04:15;6.70;65.70
74155;DHT22;62509;46.248;6.018;2024-01-06T18:09:20;6.70;66.20
74155;DHT22;62509;46.248;6.018;2024-01-06T18:14:23;6.70;66.20
74155;DHT22;62509;46.248;6.018;2024-01-06T18:19:27;6.60;66.00
74155;DHT22;62509;46.248;6.018;2024-01-06T18:24:32;6.60;66.00
74155;DHT22;62509;46.248;6.018;2024-01-06T18:29:35;6.60;65.90
74155;DHT22;62509;46.248;6.018;2024-01-06T18:34:39;6.60;66.00
74155;DHT22;62509;46.248;6.018;2024-01-06T18:39:45;6.60;65.80
74155;DHT22;62509;46.248;6.018;2024-01-06T18:44:49;6.50;65.60
74155;DHT22;62509;46.248;6.018;2024-01-06T18:49:52;6.50;65.60
74155;DHT22;62509;46.248;6.018;2024-01-06T18:54:57;6.50;65.20
74155;DHT22;62509;46.248;6.018;2024-01-06T19:00:01;6.50;64.40
74155;DHT22;62509;46.248;6.018;2024-01-06T19:05:07;6.50;64.40
74155;DHT22;62509;46.248;6.018;2024-01-06T19:10:12;6.60;64.20
74155;DHT22;62509;46.248;6.018;2024-01-06T19:15:16;6.60;63.70
74155;DHT22;62509;46.248;6.018;2024-01-06T19:20:19;6.60;63.10
74155;DHT22;62509;46.248;6.018;2024-01-06T19:25:26;6.60;63.10
74155;DHT22;62509;46.248;6.018;2024-01-06T19:30:30;6.60;63.10
74155;DHT22;62509;46.248;6.018;2024-01-06T19:35:34;6.60;62.80
74155;DHT22;62509;46.248;6.018;2024-01-06T19:40:39;6.60;62.40
74155;DHT22;62509;46.248;6.018;2024-01-06T19:45:42;6.60;62.60
74155;DHT22;62509;46.248;6.018;2024-01-06T19:50:46;6.60;62.70
74155;DHT22;62509;46.248;6.018;2024-01-06T19:55:52;6.60;63.40
74155;DHT22;62509;46.248;6.018;2024-01-06T20:00:55;6.60;63.00
74155;DHT22;62509;46.248;6.018;2024-01-06T20:06:00;6.60;62.90
74155;DHT22;62509;46.248;6.018;2024-01-06T20:11:06;6.60;62.50
74155;DHT22;62509;46.248;6.018;2024-01-06T20:16:09;6.70;62.20
74155;DHT22;62509;46.248;6.018;2024-01-06T20:21:13;6.70;62.30
74155;DHT22;62509;46.248;6.018;2024-01-06T20:26:18;6.80;62.40
74155;DHT22;62509;46.248;6.018;2024-01-06T20:31:21;6.80;62.60
74155;DHT22;62509;46.248;6.018;2024-01-06T20:36:24;6.80;62.60
74155;DHT22;62509;46.248;6.018;2024-01-06T20:41:29;6.80;62.60
74155;DHT22;62509;46.248;6.018;2024-01-06T20:46:33;6.80;62.60
74155;DHT22;62509;46.248;6.018;2024-01-06T20:51:36;6.80;62.80
74155;DHT22;62509;46.248;6.018;2024-01-06T20:56:41;6.80;63.10
74155;DHT22;62509;46.248;6.018;2024-01-06T21:01:45;6.80;63.10
74155;DHT22;62509;46.248;6.018;2024-01-06T21:06:48;6.90;63.30
74155;DHT22;62509;46.248;6.018;2024-01-06T21:11:53;6.90;63.40
74155;DHT22;62509;46.248;6.018;2024-01-06T21:16:57;6.90;63.50
74155;DHT22;62509;46.248;6.018;2024-01-06T21:22:00;6.80;63.70
74155;DHT22;62509;46.248;6.018;2024-01-06T21:27:05;6.90;63.90
74155;DHT22;62509;46.248;6.018;2024-01-06T21:32:09;6.90;64.10
74155;DHT22;62509;46.248;6.018;2024-01-06T21:37:12;6.90;64.20
74155;DHT22;62509;46.248;6.018;2024-01-06T21:42:17;6.80;64.30
74155;DHT22;62509;46.248;6.018;2024-01-06T21:47:20;6.70;64.30
74155;DHT22;62509;46.248;6.018;2024-01-06T21:52:26;6.70;64.30
74155;DHT22;62509;46.248;6.018;2024-01-06T21:57:31;6.70;64.40
74155;DHT22;62509;46.248;6.018;2024-01-06T22:02:35;6.70;64.80
74155;DHT22;62509;46.248;6.018;2024-01-06T22:07:39;6.70;65.00
74155;DHT22;62509;46.248;6.018;2024-01-06T22:12:43;6.70;65.30
74155;DHT22;62509;46.248;6.018;2024-01-06T22:17:47;6.70;66.20
74155;DHT22;62509;46.248;6.018;2024-01-06T22:22:50;6.70;67.20
74155;DHT22;62509;46.248;6.018;2024-01-06T22:27:55;6.60;67.80
74155;DHT22;62509;46.248;6.018;2024-01-06T22:32:59;6.60;68.70
74155;DHT22;62509;46.248;6.018;2024-01-06T22:38:03;6.60;69.30
74155;DHT22;62509;46.248;6.018;2024-01-06T22:43:08;6.60;70.00
74155;DHT22;62509;46.248;6.018;2024-01-06T22:48:11;6.60;70.40
74155;DHT22;62509;46.248;6.018;2024-01-06T22:53:14;6.60;71.10
74155;DHT22;62509;46.248;6.018;2024-01-06T22:58:19;6.50;71.70
74155;DHT22;62509;46.248;6.018;2024-01-06T23:03:23;6.50;72.50
74155;DHT22;62509;46.248;6.018;2024-01-06T23:08:26;6.50;73.20
74155;DHT22;62509;46.248;6.018;2024-01-06T23:13:31;6.50;73.70
74155;DHT22;62509;46.248;6.018;2024-01-06T23:18:35;6.50;74.40
74155;DHT22;62509;46.248;6.018;2024-01-06T23:23:38;6.40;75.10
74155;DHT22;62509;46.248;6.018;2024-01-06T23:28:45;6.30;76.00
74155;DHT22;62509;46.248;6.018;2024-01-06T23:33:48;6.30;77.30
74155;DHT22;62509;46.248;6.018;2024-01-06T23:38:52;6.30;78.20
74155;DHT22;62509;46.248;6.018;2024-01-06T23:43:57;6.30;79.10
74155;DHT22;62509;46.248;6.018;2024-01-06T23:49:00;6.20;80.10
74155;DHT22;62509;46.248;6.018;2024-01-06T23:54:04;6.10;81.60
74155;DHT22;62509;46.248;6.018;2024-01-06T23:59:09;6.10;82.70
